sensor_id;sensor_type;location;lat;lon;timestamp;P1;durP1;ratioP1;P2;durP2;ratioP2
12135;SDS011;6131;56.420;15.548;2023-09-30T00:00:14;9.53;;;2.33;;
12135;SDS011;6131;56.420;15.548;2023-09-30T00:02:41;11.37;;;2.60;;
12135;SDS011;6131;56.420;15.548;2023-09-30T00:05:07;10.40;;;2.70;;
12135;SDS011;6131;56.420;15.548;2023-09-30T00:07:33;7.70;;;2.40;;
12135;SDS011;6131;56.420;15.548;2023-09-30T00:09:59;7.33;;;2.47;;
12135;SDS011;6131;56.420;15.548;2023-09-30T00:12:25;7.33;;;2.07;;
12135;SDS011;6131;56.420;15.548;2023-09-30T00:14:51;8.40;;;2.60;;
12135;SDS011;6131;56.420;15.548;2023-09-30T00:17:18;7.43;;;2.30;;
12135;SDS011;6131;56.420;15.548;2023-09-30T00:19:44;6.63;;;2.33;;
12135;SDS011;6131;56.420;15.548;2023-09-30T00:22:10;6.60;;;2.90;;
12135;SDS011;6131;56.420;15.548;2023-09-30T00:24:36;11.33;;;2.13;;
12135;SDS011;6131;56.420;15.548;2023-09-30T00:27:02;8.93;;;2.77;;
12135;SDS011;6131;56.420;15.548;2023-09-30T00:29:28;9.77;;;2.60;;
12135;SDS011;6131;56.420;15.548;2023-09-30T00:31:54;8.97;;;2.73;;
12135;SDS011;6131;56.420;15.548;2023-09-30T00:34:20;9.80;;;2.77;;
12135;SDS011;6131;56.420;15.548;2023-09-30T00:36:46;9.37;;;2.73;;
12135;SDS011;6131;56.420;15.548;2023-09-30T00:39:12;9.23;;;2.73;;
12135;SDS011;6131;56.420;15.548;2023-09-30T00:41:38;9.53;;;2.80;;
12135;SDS011;6131;56.420;15.548;2023-09-30T00:44:05;10.77;;;2.70;;
12135;SDS011;6131;56.420;15.548;2023-09-30T00:46:33;11.83;;;3.40;;
12135;SDS011;6131;56.420;15.548;2023-09-30T00:49:00;11.37;;;3.20;;
12135;SDS011;6131;56.420;15.548;2023-09-30T00:51:27;11.17;;;3.27;;
12135;SDS011;6131;56.420;15.548;2023-09-30T00:53:58;11.63;;;2.80;;
12135;SDS011;6131;56.420;15.548;2023-09-30T00:56:25;12.13;;;3.50;;
12135;SDS011;6131;56.420;15.548;2023-09-30T00:58:52;10.77;;;3.10;;
12135;SDS011;6131;56.420;15.548;2023-09-30T01:01:19;10.77;;;3.20;;
12135;SDS011;6131;56.420;15.548;2023-09-30T01:03:45;10.77;;;3.57;;
12135;SDS011;6131;56.420;15.548;2023-09-30T01:06:12;12.23;;;3.07;;
12135;SDS011;6131;56.420;15.548;2023-09-30T01:08:38;9.37;;;2.83;;
12135;SDS011;6131;56.420;15.548;2023-09-30T01:11:04;8.23;;;3.07;;
12135;SDS011;6131;56.420;15.548;2023-09-30T01:13:37;9.70;;;3.57;;
12135;SDS011;6131;56.420;15.548;2023-09-30T01:16:06;11.47;;;3.13;;
12135;SDS011;6131;56.420;15.548;2023-09-30T01:18:35;16.73;;;4.57;;
12135;SDS011;6131;56.420;15.548;2023-09-30T01:21:02;12.30;;;3.27;;
12135;SDS011;6131;56.420;15.548;2023-09-30T01:23:32;9.27;;;3.80;;
12135;SDS011;6131;56.420;15.548;2023-09-30T01:26:02;9.13;;;3.23;;
12135;SDS011;6131;56.420;15.548;2023-09-30T01:28:29;8.93;;;3.20;;
12135;SDS011;6131;56.420;15.548;2023-09-30T01:30:56;11.10;;;3.30;;
12135;SDS011;6131;56.420;15.548;2023-09-30T01:33:22;11.33;;;3.30;;
12135;SDS011;6131;56.420;15.548;2023-09-30T01:35:48;9.97;;;3.13;;
12135;SDS011;6131;56.420;15.548;2023-09-30T01:38:14;10.17;;;3.37;;
12135;SDS011;6131;56.420;15.548;2023-09-30T01:40:40;10.47;;;3.10;;
12135;SDS011;6131;56.420;15.548;2023-09-30T01:43:09;10.77;;;3.33;;
12135;SDS011;6131;56.420;15.548;2023-09-30T01:45:38;13.40;;;3.77;;
12135;SDS011;6131;56.420;15.548;2023-09-30T01:48:04;10.93;;;3.27;;
12135;SDS011;6131;56.420;15.548;2023-09-30T01:50:30;11.80;;;3.33;;
12135;SDS011;6131;56.420;15.548;2023-09-30T01:52:56;9.90;;;3.10;;
12135;SDS011;6131;56.420;15.548;2023-09-30T01:55:22;6.30;;;2.83;;
12135;SDS011;6131;56.420;15.548;2023-09-30T01:57:48;8.73;;;2.80;;
12135;SDS011;6131;56.420;15.548;2023-09-30T02:00:14;8.90;;;3.27;;
12135;SDS011;6131;56.420;15.548;2023-09-30T02:02:42;14.13;;;3.43;;
12135;SDS011;6131;56.420;15.548;2023-09-30T02:05:09;15.43;;;3.67;;
12135;SDS011;6131;56.420;15.548;2023-09-30T02:07:35;12.93;;;3.47;;
12135;SDS011;6131;56.420;15.548;2023-09-30T02:10:02;8.80;;;2.60;;
12135;SDS011;6131;56.420;15.548;2023-09-30T02:12:28;7.97;;;3.27;;
12135;SDS011;6131;56.420;15.548;2023-09-30T02:14:54;15.50;;;4.00;;
12135;SDS011;6131;56.420;15.548;2023-09-30T02:17:20;9.73;;;3.30;;
12135;SDS011;6131;56.420;15.548;2023-09-30T02:19:46;14.87;;;3.73;;
12135;SDS011;6131;56.420;15.548;2023-09-30T02:22:12;12.50;;;3.40;;
12135;SDS011;6131;56.420;15.548;2023-09-30T02:24:38;18.03;;;3.77;;
12135;SDS011;6131;56.420;15.548;2023-09-30T02:27:05;15.63;;;3.53;;
12135;SDS011;6131;56.420;15.548;2023-09-30T02:29:31;13.37;;;3.40;;
12135;SDS011;6131;56.420;15.548;2023-09-30T02:31:57;7.43;;;3.20;;
12135;SDS011;6131;56.420;15.548;2023-09-30T02:34:23;12.77;;;3.37;;
12135;SDS011;6131;56.420;15.548;2023-09-30T02:36:50;9.93;;;3.47;;
12135;SDS011;6131;56.420;15.548;2023-09-30T02:39:16;10.70;;;3.60;;
12135;SDS011;6131;56.420;15.548;2023-09-30T02:41:43;12.70;;;3.83;;
12135;SDS011;6131;56.420;15.548;2023-09-30T02:44:09;14.40;;;3.37;;
12135;SDS011;6131;56.420;15.548;2023-09-30T02:46:35;15.60;;;4.20;;
12135;SDS011;6131;56.420;15.548;2023-09-30T02:49:01;8.43;;;3.30;;
12135;SDS011;6131;56.420;15.548;2023-09-30T02:51:27;14.03;;;3.77;;
12135;SDS011;6131;56.420;15.548;2023-09-30T02:53:54;10.37;;;3.50;;
12135;SDS011;6131;56.420;15.548;2023-09-30T02:56:20;15.27;;;4.27;;
12135;SDS011;6131;56.420;15.548;2023-09-30T02:58:49;11.53;;;3.33;;
12135;SDS011;6131;56.420;15.548;2023-09-30T03:01:16;12.43;;;4.10;;
12135;SDS011;6131;56.420;15.548;2023-09-30T03:03:43;13.07;;;3.60;;
12135;SDS011;6131;56.420;15.548;2023-09-30T03:06:12;13.53;;;3.67;;
12135;SDS011;6131;56.420;15.548;2023-09-30T03:08:39;9.43;;;3.50;;
12135;SDS011;6131;56.420;15.548;2023-09-30T03:11:06;12.70;;;3.60;;
12135;SDS011;6131;56.420;15.548;2023-09-30T03:13:32;14.40;;;3.67;;
12135;SDS011;6131;56.420;15.548;2023-09-30T03:15:58;10.90;;;3.80;;
12135;SDS011;6131;56.420;15.548;2023-09-30T03:18:26;11.60;;;3.80;;
12135;SDS011;6131;56.420;15.548;2023-09-30T03:20:58;14.43;;;3.87;;
12135;SDS011;6131;56.420;15.548;2023-09-30T03:23:25;13.83;;;3.47;;
12135;SDS011;6131;56.420;15.548;2023-09-30T03:25:58;13.37;;;3.80;;
12135;SDS011;6131;56.420;15.548;2023-09-30T03:28:24;12.77;;;3.47;;
12135;SDS011;6131;56.420;15.548;2023-09-30T03:30:50;13.87;;;4.43;;
12135;SDS011;6131;56.420;15.548;2023-09-30T03:33:16;15.23;;;4.20;;
12135;SDS011;6131;56.420;15.548;2023-09-30T03:35:42;13.67;;;3.57;;
12135;SDS011;6131;56.420;15.548;2023-09-30T03:38:09;13.30;;;3.83;;
12135;SDS011;6131;56.420;15.548;2023-09-30T03:40:35;13.17;;;3.77;;
12135;SDS011;6131;56.420;15.548;2023-09-30T03:43:03;11.00;;;3.47;;
12135;SDS011;6131;56.420;15.548;2023-09-30T03:45:33;8.30;;;3.23;;
12135;SDS011;6131;56.420;15.548;2023-09-30T03:48:00;8.17;;;3.30;;
12135;SDS011;6131;56.420;15.548;2023-09-30T03:50:27;12.60;;;3.87;;
12135;SDS011;6131;56.420;15.548;2023-09-30T03:53:00;13.60;;;3.80;;
12135;SDS011;6131;56.420;15.548;2023-09-30T03:55:26;11.43;;;3.27;;
12135;SDS011;6131;56.420;15.548;2023-09-30T03:57:54;11.80;;;3.77;;
12135;SDS011;6131;56.420;15.548;2023-09-30T04:00:21;12.47;;;3.63;;
12135;SDS011;6131;56.420;15.548;2023-09-30T04:02:47;11.63;;;3.70;;
12135;SDS011;6131;56.420;15.548;2023-09-30T04:05:14;9.50;;;3.47;;
12135;SDS011;6131;56.420;15.548;2023-09-30T04:07:42;9.57;;;3.37;;
12135;SDS011;6131;56.420;15.548;2023-09-30T04:10:08;11.73;;;3.70;;
12135;SDS011;6131;56.420;15.548;2023-09-30T04:12:34;13.90;;;3.23;;
12135;SDS011;6131;56.420;15.548;2023-09-30T04:15:00;13.80;;;4.03;;
12135;SDS011;6131;56.420;15.548;2023-09-30T04:17:28;14.40;;;3.60;;
12135;SDS011;6131;56.420;15.548;2023-09-30T04:19:56;11.37;;;3.80;;
12135;SDS011;6131;56.420;15.548;2023-09-30T04:22:22;9.13;;;2.80;;
12135;SDS011;6131;56.420;15.548;2023-09-30T04:24:49;9.67;;;3.03;;
12135;SDS011;6131;56.420;15.548;2023-09-30T04:27:15;13.63;;;3.47;;
12135;SDS011;6131;56.420;15.548;2023-09-30T04:29:42;11.03;;;3.70;;
12135;SDS011;6131;56.420;15.548;2023-09-30T04:32:08;13.63;;;3.77;;
12135;SDS011;6131;56.420;15.548;2023-09-30T04:34:34;12.30;;;3.47;;
12135;SDS011;6131;56.420;15.548;2023-09-30T04:37:01;13.00;;;3.80;;
12135;SDS011;6131;56.420;15.548;2023-09-30T04:39:27;11.57;;;3.80;;
12135;SDS011;6131;56.420;15.548;2023-09-30T04:41:53;14.70;;;3.47;;
12135;SDS011;6131;56.420;15.548;2023-09-30T04:44:20;10.90;;;4.10;;
12135;SDS011;6131;56.420;15.548;2023-09-30T04:46:47;11.87;;;3.57;;
12135;SDS011;6131;56.420;15.548;2023-09-30T04:49:14;18.57;;;3.90;;
12135;SDS011;6131;56.420;15.548;2023-09-30T04:51:40;17.50;;;4.13;;
12135;SDS011;6131;56.420;15.548;2023-09-30T04:54:06;13.07;;;3.40;;
12135;SDS011;6131;56.420;15.548;2023-09-30T04:56:34;13.73;;;3.63;;
12135;SDS011;6131;56.420;15.548;2023-09-30T04:59:00;16.77;;;3.37;;
12135;SDS011;6131;56.420;15.548;2023-09-30T05:01:27;14.20;;;3.67;;
12135;SDS011;6131;56.420;15.548;2023-09-30T05:03:53;12.37;;;3.83;;
12135;SDS011;6131;56.420;15.548;2023-09-30T05:06:19;13.07;;;4.13;;
12135;SDS011;6131;56.420;15.548;2023-09-30T05:08:46;12.03;;;3.70;;
12135;SDS011;6131;56.420;15.548;2023-09-30T05:11:12;14.83;;;3.77;;
12135;SDS011;6131;56.420;15.548;2023-09-30T05:13:39;13.03;;;3.67;;
12135;SDS011;6131;56.420;15.548;2023-09-30T05:16:05;14.33;;;3.53;;
12135;SDS011;6131;56.420;15.548;2023-09-30T05:18:32;14.23;;;3.27;;
12135;SDS011;6131;56.420;15.548;2023-09-30T05:20:58;17.10;;;3.47;;
12135;SDS011;6131;56.420;15.548;2023-09-30T05:23:25;18.47;;;3.73;;
12135;SDS011;6131;56.420;15.548;2023-09-30T05:25:51;10.87;;;3.30;;
12135;SDS011;6131;56.420;15.548;2023-09-30T05:28:19;12.17;;;3.33;;
12135;SDS011;6131;56.420;15.548;2023-09-30T05:30:45;16.03;;;3.87;;
12135;SDS011;6131;56.420;15.548;2023-09-30T05:33:11;13.30;;;3.53;;
12135;SDS011;6131;56.420;15.548;2023-09-30T05:35:40;11.63;;;3.00;;
12135;SDS011;6131;56.420;15.548;2023-09-30T05:38:06;12.73;;;3.23;;
12135;SDS011;6131;56.420;15.548;2023-09-30T05:40:32;15.77;;;4.23;;
12135;SDS011;6131;56.420;15.548;2023-09-30T05:42:58;16.33;;;3.47;;
12135;SDS011;6131;56.420;15.548;2023-09-30T05:45:25;12.97;;;3.50;;
12135;SDS011;6131;56.420;15.548;2023-09-30T05:47:52;9.83;;;3.33;;
12135;SDS011;6131;56.420;15.548;2023-09-30T05:50:19;14.03;;;3.33;;
12135;SDS011;6131;56.420;15.548;2023-09-30T05:52:50;14.67;;;4.33;;
12135;SDS011;6131;56.420;15.548;2023-09-30T05:55:16;15.33;;;3.47;;
12135;SDS011;6131;56.420;15.548;2023-09-30T05:57:48;13.77;;;3.20;;
12135;SDS011;6131;56.420;15.548;2023-09-30T06:00:15;10.10;;;3.30;;
12135;SDS011;6131;56.420;15.548;2023-09-30T06:02:48;14.50;;;3.47;;
12135;SDS011;6131;56.420;15.548;2023-09-30T06:05:16;13.60;;;2.97;;
12135;SDS011;6131;56.420;15.548;2023-09-30T06:07:44;13.53;;;3.37;;
12135;SDS011;6131;56.420;15.548;2023-09-30T06:10:10;12.50;;;3.30;;
12135;SDS011;6131;56.420;15.548;2023-09-30T06:12:36;13.17;;;3.53;;
12135;SDS011;6131;56.420;15.548;2023-09-30T06:15:02;16.77;;;3.50;;
12135;SDS011;6131;56.420;15.548;2023-09-30T06:17:28;14.27;;;3.93;;
12135;SDS011;6131;56.420;15.548;2023-09-30T06:19:54;13.40;;;2.70;;
12135;SDS011;6131;56.420;15.548;2023-09-30T06:22:20;17.87;;;3.57;;
12135;SDS011;6131;56.420;15.548;2023-09-30T06:24:46;17.20;;;3.23;;
12135;SDS011;6131;56.420;15.548;2023-09-30T06:27:13;12.13;;;3.33;;
12135;SDS011;6131;56.420;15.548;2023-09-30T06:29:39;13.23;;;3.20;;
12135;SDS011;6131;56.420;15.548;2023-09-30T06:32:07;14.83;;;3.70;;
12135;SDS011;6131;56.420;15.548;2023-09-30T06:34:33;13.10;;;3.03;;
12135;SDS011;6131;56.420;15.548;2023-09-30T06:36:59;15.80;;;3.60;;
12135;SDS011;6131;56.420;15.548;2023-09-30T06:39:25;13.60;;;3.00;;
12135;SDS011;6131;56.420;15.548;2023-09-30T06:41:51;13.43;;;3.33;;
12135;SDS011;6131;56.420;15.548;2023-09-30T06:44:17;12.40;;;3.57;;
12135;SDS011;6131;56.420;15.548;2023-09-30T06:46:44;13.10;;;3.27;;
12135;SDS011;6131;56.420;15.548;2023-09-30T08:24:12;12.37;;;3.23;;
12135;SDS011;6131;56.420;15.548;2023-09-30T08:26:38;10.75;;;2.85;;
12135;SDS011;6131;56.420;15.548;2023-09-30T08:29:04;15.98;;;3.03;;
12135;SDS011;6131;56.420;15.548;2023-09-30T08:31:31;16.33;;;3.13;;
12135;SDS011;6131;56.420;15.548;2023-09-30T08:33:58;12.10;;;2.75;;
12135;SDS011;6131;56.420;15.548;2023-09-30T08:36:23;11.48;;;2.60;;
12135;SDS011;6131;56.420;15.548;2023-09-30T08:38:50;11.43;;;2.60;;
12135;SDS011;6131;56.420;15.548;2023-09-30T08:41:30;12.88;;;2.80;;
12135;SDS011;6131;56.420;15.548;2023-09-30T08:43:57;10.07;;;2.38;;
12135;SDS011;6131;56.420;15.548;2023-09-30T08:46:25;13.27;;;2.38;;
12135;SDS011;6131;56.420;15.548;2023-09-30T08:48:51;10.43;;;2.20;;
12135;SDS011;6131;56.420;15.548;2023-09-30T08:51:18;12.77;;;3.22;;
12135;SDS011;6131;56.420;15.548;2023-09-30T08:53:44;9.63;;;2.60;;
12135;SDS011;6131;56.420;15.548;2023-09-30T08:56:11;12.60;;;2.50;;
12135;SDS011;6131;56.420;15.548;2023-09-30T08:58:39;12.90;;;2.67;;
12135;SDS011;6131;56.420;15.548;2023-09-30T09:01:05;9.35;;;2.65;;
12135;SDS011;6131;56.420;15.548;2023-09-30T09:03:34;8.88;;;2.50;;
12135;SDS011;6131;56.420;15.548;2023-09-30T09:06:01;8.73;;;2.22;;
12135;SDS011;6131;56.420;15.548;2023-09-30T09:08:27;10.30;;;2.45;;
12135;SDS011;6131;56.420;15.548;2023-09-30T09:10:58;11.15;;;2.83;;
12135;SDS011;6131;56.420;15.548;2023-09-30T09:13:25;10.55;;;2.70;;
12135;SDS011;6131;56.420;15.548;2023-09-30T09:16:07;10.73;;;2.70;;
12135;SDS011;6131;56.420;15.548;2023-09-30T09:18:33;11.63;;;2.50;;
12135;SDS011;6131;56.420;15.548;2023-09-30T09:21:07;9.88;;;2.53;;
12135;SDS011;6131;56.420;15.548;2023-09-30T09:23:38;8.85;;;2.75;;
12135;SDS011;6131;56.420;15.548;2023-09-30T09:26:04;9.50;;;2.75;;
12135;SDS011;6131;56.420;15.548;2023-09-30T09:28:36;4.78;;;1.90;;
12135;SDS011;6131;56.420;15.548;2023-09-30T09:31:07;12.98;;;2.75;;
12135;SDS011;6131;56.420;15.548;2023-09-30T09:33:45;8.20;;;2.10;;
12135;SDS011;6131;56.420;15.548;2023-09-30T09:36:11;9.70;;;2.45;;
12135;SDS011;6131;56.420;15.548;2023-09-30T09:38:43;9.82;;;2.28;;
12135;SDS011;6131;56.420;15.548;2023-09-30T09:41:09;10.95;;;2.65;;
12135;SDS011;6131;56.420;15.548;2023-09-30T09:43:38;10.68;;;2.40;;
12135;SDS011;6131;56.420;15.548;2023-09-30T09:46:09;8.43;;;1.90;;
12135;SDS011;6131;56.420;15.548;2023-09-30T09:48:37;12.00;;;2.35;;
12135;SDS011;6131;56.420;15.548;2023-09-30T09:51:06;8.32;;;2.15;;
12135;SDS011;6131;56.420;15.548;2023-09-30T09:53:34;6.55;;;2.20;;
12135;SDS011;6131;56.420;15.548;2023-09-30T09:56:02;7.18;;;2.28;;
12135;SDS011;6131;56.420;15.548;2023-09-30T09:58:31;11.60;;;2.33;;
12135;SDS011;6131;56.420;15.548;2023-09-30T10:00:58;9.93;;;2.00;;
12135;SDS011;6131;56.420;15.548;2023-09-30T10:03:25;9.27;;;2.03;;
12135;SDS011;6131;56.420;15.548;2023-09-30T10:05:51;7.22;;;2.08;;
12135;SDS011;6131;56.420;15.548;2023-09-30T10:08:18;6.97;;;1.80;;
12135;SDS011;6131;56.420;15.548;2023-09-30T10:10:46;7.45;;;2.00;;
12135;SDS011;6131;56.420;15.548;2023-09-30T10:13:49;10.15;;;2.30;;
12135;SDS011;6131;56.420;15.548;2023-09-30T10:16:04;10.15;;;1.80;;
12135;SDS011;6131;56.420;15.548;2023-09-30T10:18:30;8.70;;;2.10;;
12135;SDS011;6131;56.420;15.548;2023-09-30T10:21:16;10.07;;;2.05;;
12135;SDS011;6131;56.420;15.548;2023-09-30T10:23:42;10.57;;;2.25;;
12135;SDS011;6131;56.420;15.548;2023-09-30T10:28:39;9.95;;;2.00;;
12135;SDS011;6131;56.420;15.548;2023-09-30T10:36:31;5.30;;;1.73;;
12135;SDS011;6131;56.420;15.548;2023-09-30T10:39:03;7.43;;;1.80;;
12135;SDS011;6131;56.420;15.548;2023-09-30T10:46:53;8.02;;;1.77;;
12135;SDS011;6131;56.420;15.548;2023-09-30T10:51:49;7.45;;;1.73;;
12135;SDS011;6131;56.420;15.548;2023-09-30T10:54:18;4.95;;;1.52;;
12135;SDS011;6131;56.420;15.548;2023-09-30T10:56:48;7.85;;;1.80;;
12135;SDS011;6131;56.420;15.548;2023-09-30T10:59:24;7.72;;;1.40;;
12135;SDS011;6131;56.420;15.548;2023-09-30T11:01:50;7.70;;;1.60;;
12135;SDS011;6131;56.420;15.548;2023-09-30T11:04:17;7.85;;;1.38;;
12135;SDS011;6131;56.420;15.548;2023-09-30T11:06:44;5.05;;;1.60;;
12135;SDS011;6131;56.420;15.548;2023-09-30T11:09:15;5.85;;;1.60;;
12135;SDS011;6131;56.420;15.548;2023-09-30T11:11:45;10.32;;;1.80;;
12135;SDS011;6131;56.420;15.548;2023-09-30T11:14:25;7.35;;;1.83;;
12135;SDS011;6131;56.420;15.548;2023-09-30T11:16:52;7.25;;;1.48;;
12135;SDS011;6131;56.420;15.548;2023-09-30T11:19:18;5.70;;;1.58;;
12135;SDS011;6131;56.420;15.548;2023-09-30T11:21:54;4.95;;;1.70;;
12135;SDS011;6131;56.420;15.548;2023-09-30T11:24:20;7.03;;;1.65;;
12135;SDS011;6131;56.420;15.548;2023-09-30T11:26:46;4.60;;;1.27;;
12135;SDS011;6131;56.420;15.548;2023-09-30T11:29:13;6.65;;;1.60;;
12135;SDS011;6131;56.420;15.548;2023-09-30T11:31:41;12.52;;;1.63;;
12135;SDS011;6131;56.420;15.548;2023-09-30T11:34:07;4.57;;;1.48;;
12135;SDS011;6131;56.420;15.548;2023-09-30T11:36:35;7.35;;;1.60;;
12135;SDS011;6131;56.420;15.548;2023-09-30T11:39:02;5.82;;;1.77;;
12135;SDS011;6131;56.420;15.548;2023-09-30T11:41:32;7.60;;;1.70;;
12135;SDS011;6131;56.420;15.548;2023-09-30T11:44:19;7.63;;;1.58;;
12135;SDS011;6131;56.420;15.548;2023-09-30T11:46:51;6.55;;;1.48;;
12135;SDS011;6131;56.420;15.548;2023-09-30T11:51:52;4.93;;;1.25;;
12135;SDS011;6131;56.420;15.548;2023-09-30T11:54:18;6.05;;;1.20;;
12135;SDS011;6131;56.420;15.548;2023-09-30T11:56:44;4.18;;;1.10;;
12135;SDS011;6131;56.420;15.548;2023-09-30T11:59:12;3.95;;;1.30;;
12135;SDS011;6131;56.420;15.548;2023-09-30T12:01:38;3.85;;;1.00;;
12135;SDS011;6131;56.420;15.548;2023-09-30T12:04:04;6.03;;;1.67;;
12135;SDS011;6131;56.420;15.548;2023-09-30T12:06:31;3.70;;;1.05;;
12135;SDS011;6131;56.420;15.548;2023-09-30T12:08:59;6.35;;;1.30;;
12135;SDS011;6131;56.420;15.548;2023-09-30T12:11:25;7.13;;;1.48;;
12135;SDS011;6131;56.420;15.548;2023-09-30T12:13:51;7.35;;;1.38;;
12135;SDS011;6131;56.420;15.548;2023-09-30T12:16:17;6.68;;;1.33;;
12135;SDS011;6131;56.420;15.548;2023-09-30T12:18:44;4.03;;;1.17;;
12135;SDS011;6131;56.420;15.548;2023-09-30T12:21:11;6.57;;;1.50;;
12135;SDS011;6131;56.420;15.548;2023-09-30T12:23:38;5.22;;;1.38;;
12135;SDS011;6131;56.420;15.548;2023-09-30T12:26:04;3.85;;;1.45;;
12135;SDS011;6131;56.420;15.548;2023-09-30T12:28:31;4.75;;;1.38;;
12135;SDS011;6131;56.420;15.548;2023-09-30T12:30:58;4.32;;;1.10;;
12135;SDS011;6131;56.420;15.548;2023-09-30T12:33:24;8.75;;;1.50;;
12135;SDS011;6131;56.420;15.548;2023-09-30T12:35:50;5.35;;;1.60;;
12135;SDS011;6131;56.420;15.548;2023-09-30T12:38:16;4.82;;;1.33;;
12135;SDS011;6131;56.420;15.548;2023-09-30T12:40:42;6.95;;;1.40;;
12135;SDS011;6131;56.420;15.548;2023-09-30T12:43:08;7.18;;;1.58;;
12135;SDS011;6131;56.420;15.548;2023-09-30T12:45:36;4.78;;;1.33;;
12135;SDS011;6131;56.420;15.548;2023-09-30T12:48:05;7.10;;;1.65;;
12135;SDS011;6131;56.420;15.548;2023-09-30T12:50:32;4.15;;;1.20;;
12135;SDS011;6131;56.420;15.548;2023-09-30T12:52:58;4.75;;;1.45;;
12135;SDS011;6131;56.420;15.548;2023-09-30T12:55:24;3.38;;;1.20;;
12135;SDS011;6131;56.420;15.548;2023-09-30T12:57:51;6.28;;;1.60;;
12135;SDS011;6131;56.420;15.548;2023-09-30T13:00:18;6.63;;;1.42;;
12135;SDS011;6131;56.420;15.548;2023-09-30T13:02:44;6.18;;;1.45;;
12135;SDS011;6131;56.420;15.548;2023-09-30T13:05:11;4.72;;;1.50;;
12135;SDS011;6131;56.420;15.548;2023-09-30T13:07:37;4.78;;;1.48;;
12135;SDS011;6131;56.420;15.548;2023-09-30T13:10:03;4.63;;;1.33;;
12135;SDS011;6131;56.420;15.548;2023-09-30T13:12:30;4.60;;;1.48;;
12135;SDS011;6131;56.420;15.548;2023-09-30T13:14:58;4.75;;;1.17;;
12135;SDS011;6131;56.420;15.548;2023-09-30T13:17:24;5.45;;;1.30;;
12135;SDS011;6131;56.420;15.548;2023-09-30T13:19:50;3.88;;;1.25;;
12135;SDS011;6131;56.420;15.548;2023-09-30T13:22:21;3.35;;;1.20;;
12135;SDS011;6131;56.420;15.548;2023-09-30T13:24:47;6.88;;;1.15;;
12135;SDS011;6131;56.420;15.548;2023-09-30T13:27:13;5.13;;;1.25;;
12135;SDS011;6131;56.420;15.548;2023-09-30T13:29:42;4.13;;;1.38;;
12135;SDS011;6131;56.420;15.548;2023-09-30T13:32:09;4.63;;;1.23;;
12135;SDS011;6131;56.420;15.548;2023-09-30T13:34:35;7.65;;;1.00;;
12135;SDS011;6131;56.420;15.548;2023-09-30T13:37:01;5.78;;;1.00;;
12135;SDS011;6131;56.420;15.548;2023-09-30T13:39:27;6.35;;;1.27;;
12135;SDS011;6131;56.420;15.548;2023-09-30T13:41:54;5.70;;;1.40;;
12135;SDS011;6131;56.420;15.548;2023-09-30T13:44:20;3.40;;;1.10;;
12135;SDS011;6131;56.420;15.548;2023-09-30T13:46:46;4.97;;;1.10;;
12135;SDS011;6131;56.420;15.548;2023-09-30T13:49:15;3.80;;;1.10;;
12135;SDS011;6131;56.420;15.548;2023-09-30T13:51:42;4.88;;;1.42;;
12135;SDS011;6131;56.420;15.548;2023-09-30T13:54:09;3.80;;;1.23;;
12135;SDS011;6131;56.420;15.548;2023-09-30T13:56:35;5.80;;;1.50;;
12135;SDS011;6131;56.420;15.548;2023-09-30T13:59:01;3.83;;;1.20;;
12135;SDS011;6131;56.420;15.548;2023-09-30T14:01:27;4.28;;;1.27;;
12135;SDS011;6131;56.420;15.548;2023-09-30T14:03:53;2.75;;;1.10;;
12135;SDS011;6131;56.420;15.548;2023-09-30T14:06:21;2.72;;;1.08;;
12135;SDS011;6131;56.420;15.548;2023-09-30T14:08:47;5.50;;;1.52;;
12135;SDS011;6131;56.420;15.548;2023-09-30T14:11:13;3.58;;;1.25;;
12135;SDS011;6131;56.420;15.548;2023-09-30T14:13:39;3.63;;;1.10;;
12135;SDS011;6131;56.420;15.548;2023-09-30T14:16:06;3.83;;;1.20;;
12135;SDS011;6131;56.420;15.548;2023-09-30T14:18:32;3.72;;;1.17;;
12135;SDS011;6131;56.420;15.548;2023-09-30T14:21:01;3.63;;;1.42;;
12135;SDS011;6131;56.420;15.548;2023-09-30T14:23:27;3.15;;;1.20;;
12135;SDS011;6131;56.420;15.548;2023-09-30T14:25:54;3.47;;;1.13;;
12135;SDS011;6131;56.420;15.548;2023-09-30T14:28:30;4.18;;;1.40;;
12135;SDS011;6131;56.420;15.548;2023-09-30T14:30:56;2.75;;;1.05;;
12135;SDS011;6131;56.420;15.548;2023-09-30T14:33:22;7.78;;;1.48;;
12135;SDS011;6131;56.420;15.548;2023-09-30T14:35:48;5.63;;;1.40;;
12135;SDS011;6131;56.420;15.548;2023-09-30T14:38:14;3.67;;;1.20;;
12135;SDS011;6131;56.420;15.548;2023-09-30T14:40:40;5.57;;;1.50;;
12135;SDS011;6131;56.420;15.548;2023-09-30T14:43:07;5.13;;;1.40;;
12135;SDS011;6131;56.420;15.548;2023-09-30T14:45:40;3.92;;;1.40;;
12135;SDS011;6131;56.420;15.548;2023-09-30T14:48:07;3.53;;;1.30;;
12135;SDS011;6131;56.420;15.548;2023-09-30T14:50:33;3.60;;;1.10;;
12135;SDS011;6131;56.420;15.548;2023-09-30T14:52:59;3.53;;;1.42;;
12135;SDS011;6131;56.420;15.548;2023-09-30T14:55:25;5.00;;;1.58;;
12135;SDS011;6131;56.420;15.548;2023-09-30T14:57:51;3.60;;;1.30;;
12135;SDS011;6131;56.420;15.548;2023-09-30T15:00:17;5.93;;;1.25;;
12135;SDS011;6131;56.420;15.548;2023-09-30T15:02:46;3.22;;;1.23;;
12135;SDS011;6131;56.420;15.548;2023-09-30T15:05:12;3.97;;;1.48;;
12135;SDS011;6131;56.420;15.548;2023-09-30T15:07:38;3.88;;;1.30;;
12135;SDS011;6131;56.420;15.548;2023-09-30T15:10:05;3.47;;;1.25;;
12135;SDS011;6131;56.420;15.548;2023-09-30T15:12:31;5.50;;;1.50;;
12135;SDS011;6131;56.420;15.548;2023-09-30T15:14:57;5.65;;;1.35;;
12135;SDS011;6131;56.420;15.548;2023-09-30T15:17:23;5.22;;;1.52;;
12135;SDS011;6131;56.420;15.548;2023-09-30T15:19:49;4.82;;;1.40;;
12135;SDS011;6131;56.420;15.548;2023-09-30T15:22:16;5.55;;;1.67;;
12135;SDS011;6131;56.420;15.548;2023-09-30T15:24:42;4.47;;;1.40;;
12135;SDS011;6131;56.420;15.548;2023-09-30T15:27:08;5.47;;;1.42;;
12135;SDS011;6131;56.420;15.548;2023-09-30T15:29:34;3.25;;;1.30;;
12135;SDS011;6131;56.420;15.548;2023-09-30T15:32:00;4.57;;;1.50;;
12135;SDS011;6131;56.420;15.548;2023-09-30T15:34:27;3.83;;;1.10;;
12135;SDS011;6131;56.420;15.548;2023-09-30T15:36:53;5.70;;;1.38;;
12135;SDS011;6131;56.420;15.548;2023-09-30T15:39:19;4.70;;;1.30;;
12135;SDS011;6131;56.420;15.548;2023-09-30T15:41:45;5.85;;;1.30;;
12135;SDS011;6131;56.420;15.548;2023-09-30T15:44:11;5.00;;;1.23;;
12135;SDS011;6131;56.420;15.548;2023-09-30T15:46:37;5.68;;;1.60;;
12135;SDS011;6131;56.420;15.548;2023-09-30T15:49:04;4.25;;;1.70;;
12135;SDS011;6131;56.420;15.548;2023-09-30T15:51:30;6.18;;;1.30;;
12135;SDS011;6131;56.420;15.548;2023-09-30T15:53:56;4.68;;;1.38;;
12135;SDS011;6131;56.420;15.548;2023-09-30T15:56:22;4.35;;;1.10;;
12135;SDS011;6131;56.420;15.548;2023-09-30T15:58:48;4.53;;;1.23;;
12135;SDS011;6131;56.420;15.548;2023-09-30T16:01:14;6.00;;;1.20;;
12135;SDS011;6131;56.420;15.548;2023-09-30T16:03:40;6.00;;;1.33;;
12135;SDS011;6131;56.420;15.548;2023-09-30T16:06:08;5.25;;;1.20;;
12135;SDS011;6131;56.420;15.548;2023-09-30T16:08:34;6.15;;;1.23;;
12135;SDS011;6131;56.420;15.548;2023-09-30T16:11:00;5.25;;;1.25;;
12135;SDS011;6131;56.420;15.548;2023-09-30T16:13:26;4.50;;;1.23;;
12135;SDS011;6131;56.420;15.548;2023-09-30T16:15:53;5.23;;;1.30;;
12135;SDS011;6131;56.420;15.548;2023-09-30T16:18:19;4.68;;;1.58;;
12135;SDS011;6131;56.420;15.548;2023-09-30T16:20:45;4.82;;;1.45;;
12135;SDS011;6131;56.420;15.548;2023-09-30T16:23:12;4.73;;;1.40;;
12135;SDS011;6131;56.420;15.548;2023-09-30T16:25:38;5.88;;;1.50;;
12135;SDS011;6131;56.420;15.548;2023-09-30T16:28:04;8.07;;;1.60;;
12135;SDS011;6131;56.420;15.548;2023-09-30T16:30:30;5.35;;;1.30;;
12135;SDS011;6131;56.420;15.548;2023-09-30T16:32:56;5.85;;;1.40;;
12135;SDS011;6131;56.420;15.548;2023-09-30T16:35:22;4.37;;;1.40;;